createdAt,value
2018-12-30T00:01:37.120Z,46.20
2018-12-30T00:04:30.899Z,46.30
2018-12-30T00:07:24.246Z,46.30
2018-12-30T00:10:17.761Z,46.20
2018-12-30T00:13:14.544Z,46.30
2018-12-30T00:16:08.799Z,46.40
2018-12-30T00:19:03.514Z,46.30
2018-12-30T00:21:56.674Z,46.20
2018-12-30T00:24:50.906Z,46.20
2018-12-30T00:27:43.930Z,46.40
2018-12-30T00:30:37.298Z,46.60
2018-12-30T00:33:30.549Z,46.30
2018-12-30T00:36:23.627Z,46.30
2018-12-30T00:39:16.888Z,46.30
2018-12-30T00:42:10.967Z,46.30
2018-12-30T00:45:03.883Z,46.40
2018-12-30T00:47:58.249Z,46.40
2018-12-30T00:50:51.599Z,46.40
2018-12-30T00:53:44.808Z,46.40
2018-12-30T00:56:38.110Z,46.40
2018-12-30T00:59:30.972Z,46.40
2018-12-30T01:02:24.438Z,46.40
2018-12-30T01:05:18.592Z,46.40
2018-12-30T01:08:11.620Z,46.50
2018-12-30T01:11:04.838Z,46.40
2018-12-30T01:13:58.113Z,46.40
2018-12-30T01:16:53.104Z,46.50
2018-12-30T01:19:46.252Z,46.50
2018-12-30T01:22:39.555Z,46.50
2018-12-30T01:25:35.156Z,46.50
2018-12-30T01:28:32.861Z,46.50
2018-12-30T01:31:27.882Z,46.50
2018-12-30T01:34:21.457Z,46.50
2018-12-30T01:37:16.417Z,46.60
2018-12-30T01:40:09.089Z,46.60
2018-12-30T01:43:02.224Z,46.60
2018-12-30T01:45:58.142Z,46.60
2018-12-30T01:48:53.986Z,46.60
2018-12-30T01:51:47.210Z,46.60
2018-12-30T01:54:43.412Z,46.60
2018-12-30T01:57:34.870Z,46.60
2018-12-30T02:00:28.314Z,46.60
2018-12-30T02:03:23.060Z,46.70
2018-12-30T02:06:16.342Z,46.60
2018-12-30T02:09:11.050Z,46.60
2018-12-30T02:12:04.559Z,46.60
2018-12-30T02:14:58.458Z,46.60
2018-12-30T02:17:52.010Z,46.60
2018-12-30T02:20:45.203Z,46.60
2018-12-30T02:23:38.796Z,46.60
2018-12-30T02:26:32.031Z,46.80
2018-12-30T02:29:43.554Z,46.60
2018-12-30T02:32:37.415Z,46.70
2018-12-30T02:35:31.351Z,46.70
2018-12-30T02:38:25.308Z,46.60
2018-12-30T02:41:23.323Z,46.60
2018-12-30T02:44:13.533Z,46.50
2018-12-30T02:47:08.693Z,46.60
2018-12-30T02:50:02.240Z,46.50
2018-12-30T02:52:55.776Z,46.60
2018-12-30T02:55:49.189Z,46.60
2018-12-30T02:58:42.814Z,46.60
2018-12-30T03:01:36.109Z,46.60
2018-12-30T03:04:30.620Z,46.60
2018-12-30T03:07:25.753Z,46.50
2018-12-30T03:10:19.035Z,46.40
2018-12-30T03:13:13.268Z,46.20
2018-12-30T03:16:09.921Z,46.10
2018-12-30T03:19:04.145Z,46.00
2018-12-30T03:21:59.684Z,45.80
2018-12-30T03:24:53.269Z,45.90
2018-12-30T03:27:47.177Z,46.00
2018-12-30T03:30:40.754Z,45.90
2018-12-30T03:33:33.625Z,46.00
2018-12-30T03:36:28.273Z,45.90
2018-12-30T03:39:22.162Z,45.70
2018-12-30T03:42:16.178Z,45.70
2018-12-30T03:45:09.657Z,45.50
2018-12-30T03:48:03.210Z,45.60
2018-12-30T03:50:59.441Z,45.40
2018-12-30T03:53:52.872Z,45.50
2018-12-30T03:56:46.723Z,45.50
2018-12-30T03:59:40.181Z,45.80
2018-12-30T04:02:33.392Z,45.50
2018-12-30T04:05:28.215Z,45.40
2018-12-30T04:08:21.466Z,45.30
2018-12-30T04:11:15.178Z,45.00
2018-12-30T04:14:08.601Z,45.00
2018-12-30T04:17:01.951Z,45.00
2018-12-30T04:19:55.649Z,44.80
2018-12-30T04:22:50.036Z,44.80
2018-12-30T04:25:43.109Z,44.80
2018-12-30T04:28:37.696Z,44.60
2018-12-30T04:31:30.889Z,44.50
2018-12-30T04:34:23.956Z,44.50
2018-12-30T04:37:17.243Z,44.40
2018-12-30T04:40:10.627Z,44.40
2018-12-30T04:43:04.360Z,44.40
2018-12-30T04:45:59.310Z,44.40
2018-12-30T04:48:52.482Z,44.40
2018-12-30T04:51:45.737Z,44.90
2018-12-30T04:54:41.661Z,44.60
2018-12-30T04:57:38.606Z,45.30
2018-12-30T05:00:31.962Z,44.70
2018-12-30T05:03:24.181Z,44.20
2018-12-30T05:06:17.513Z,44.60
2018-12-30T05:09:11.384Z,45.10
2018-12-30T05:12:07.256Z,44.70
2018-12-30T05:15:02.770Z,44.70
2018-12-30T05:17:59.940Z,44.90
2018-12-30T05:20:53.722Z,44.90
2018-12-30T05:23:47.259Z,44.90
2018-12-30T05:26:40.802Z,44.90
2018-12-30T05:29:34.199Z,44.90
2018-12-30T05:32:27.747Z,44.60
2018-12-30T05:35:21.144Z,44.80
2018-12-30T05:38:14.710Z,44.60
2018-12-30T05:41:08.151Z,45.00
2018-12-30T05:44:01.625Z,44.90
2018-12-30T05:46:54.874Z,44.90
2018-12-30T05:49:49.039Z,44.90
2018-12-30T05:52:42.777Z,44.80
2018-12-30T05:55:36.116Z,44.70
2018-12-30T05:58:36.864Z,44.50
2018-12-30T06:01:31.858Z,44.50
2018-12-30T06:04:25.382Z,44.80
2018-12-30T06:07:21.873Z,44.40
2018-12-30T06:10:16.127Z,44.30
2018-12-30T06:13:09.752Z,44.30
2018-12-30T06:16:04.031Z,44.30
2018-12-30T06:18:57.870Z,44.30
2018-12-30T06:21:51.429Z,44.30
2018-12-30T06:24:44.827Z,43.70
2018-12-30T06:27:38.144Z,44.20
2018-12-30T06:30:31.512Z,44.20
2018-12-30T06:33:27.047Z,44.10
2018-12-30T06:36:27.945Z,44.10
2018-12-30T06:39:34.186Z,44.20
2018-12-30T06:42:18.742Z,44.10
2018-12-30T06:45:12.482Z,44.10
2018-12-30T06:48:05.770Z,42.90
2018-12-30T06:51:06.289Z,44.10
2018-12-30T06:54:03.115Z,44.10
2018-12-30T06:57:03.976Z,44.10
2018-12-30T06:59:56.974Z,44.00
2018-12-30T07:02:51.609Z,42.60
2018-12-30T07:05:45.562Z,43.60
2018-12-30T07:08:40.603Z,43.90
2018-12-30T07:11:33.580Z,44.00
2018-12-30T07:14:26.948Z,44.00
2018-12-30T07:17:24.067Z,43.90
2018-12-30T07:20:25.855Z,44.00
2018-12-30T07:23:19.212Z,43.90
2018-12-30T07:26:12.655Z,43.90
2018-12-30T07:29:09.018Z,44.00
2018-12-30T07:32:03.589Z,43.90
2018-12-30T07:34:57.445Z,44.00
2018-12-30T07:37:55.534Z,44.00
2018-12-30T07:40:48.216Z,43.80
2018-12-30T07:43:42.531Z,43.90
2018-12-30T07:46:39.637Z,44.00
2018-12-30T07:49:31.801Z,43.60
2018-12-30T07:52:25.973Z,43.70
2018-12-30T07:55:19.738Z,43.90
2018-12-30T07:58:17.408Z,43.80
2018-12-30T08:01:13.272Z,43.70
2018-12-30T08:04:04.998Z,43.90
2018-12-30T08:06:58.176Z,43.90
2018-12-30T08:09:51.877Z,43.40
2018-12-30T08:12:45.391Z,43.90
2018-12-30T08:15:40.479Z,44.00
2018-12-30T08:18:43.083Z,44.10
2018-12-30T08:21:30.409Z,43.80
2018-12-30T08:24:25.306Z,43.80
2018-12-30T08:27:25.370Z,43.90
2018-12-30T08:30:20.237Z,44.00
2018-12-30T08:33:15.192Z,44.00
2018-12-30T08:36:08.311Z,43.90
2018-12-30T08:39:02.131Z,43.90
2018-12-30T08:42:05.751Z,44.00
2018-12-30T08:44:50.308Z,44.00
2018-12-30T08:47:45.124Z,43.90
2018-12-30T08:50:38.976Z,43.90
2018-12-30T08:53:32.428Z,43.60
2018-12-30T08:56:25.713Z,43.80
2018-12-30T08:59:18.874Z,43.70
2018-12-30T09:02:12.210Z,43.80
2018-12-30T09:05:05.966Z,43.80
2018-12-30T09:07:59.877Z,43.80
2018-12-30T09:10:52.914Z,43.90
2018-12-30T09:13:48.949Z,43.80
2018-12-30T09:16:42.436Z,43.60
2018-12-30T09:19:35.717Z,43.80
2018-12-30T09:22:29.568Z,44.00
2018-12-30T09:25:23.914Z,43.90
2018-12-30T09:28:17.133Z,43.90
2018-12-30T09:31:10.584Z,43.90
2018-12-30T09:34:03.529Z,44.10
2018-12-30T09:36:58.140Z,44.10
2018-12-30T09:40:01.015Z,44.10
2018-12-30T09:42:46.142Z,44.10
2018-12-30T09:45:39.631Z,44.10
2018-12-30T09:48:33.883Z,44.20
2018-12-30T09:51:27.484Z,44.20
2018-12-30T09:54:20.733Z,44.20
2018-12-30T09:57:14.161Z,44.20
2018-12-30T10:00:08.221Z,44.20
2018-12-30T10:03:03.505Z,44.20
2018-12-30T10:05:56.892Z,44.30
2018-12-30T10:08:50.247Z,44.30
2018-12-30T10:11:44.143Z,44.30
2018-12-30T10:14:40.245Z,44.30
2018-12-30T10:17:33.841Z,44.20
2018-12-30T10:20:27.581Z,44.20
2018-12-30T10:23:21.276Z,44.10
2018-12-30T10:26:15.319Z,44.10
2018-12-30T10:29:08.726Z,44.10
2018-12-30T10:32:02.465Z,44.10
2018-12-30T10:35:03.908Z,44.10
2018-12-30T10:37:50.019Z,44.10
2018-12-30T10:40:43.315Z,44.20
2018-12-30T10:43:39.127Z,44.20
2018-12-30T10:46:32.269Z,44.20
2018-12-30T10:49:25.097Z,44.20
2018-12-30T10:52:18.470Z,44.20
2018-12-30T10:55:11.943Z,44.20
2018-12-30T10:58:05.021Z,44.20
2018-12-30T11:00:58.937Z,44.30
2018-12-30T11:03:52.637Z,44.30
2018-12-30T11:06:46.164Z,44.30
2018-12-30T11:09:39.589Z,44.30
2018-12-30T11:12:32.762Z,44.40
2018-12-30T11:15:27.093Z,44.30
2018-12-30T11:18:20.849Z,44.40
2018-12-30T11:21:15.266Z,44.40
2018-12-30T11:24:09.250Z,44.40
2018-12-30T11:27:02.928Z,44.50
2018-12-30T11:29:56.554Z,44.50
2018-12-30T11:32:50.057Z,44.50
2018-12-30T11:35:52.521Z,44.60
2018-12-30T11:38:46.332Z,44.60
2018-12-30T11:41:39.736Z,44.70
2018-12-30T11:44:34.594Z,44.80
2018-12-30T11:47:27.693Z,44.80
2018-12-30T11:50:23.126Z,44.80
2018-12-30T11:53:16.548Z,44.90
2018-12-30T11:56:13.192Z,44.90
2018-12-30T11:59:08.998Z,45.00
2018-12-30T12:02:03.556Z,45.00
2018-12-30T12:04:56.890Z,45.00
2018-12-30T12:07:50.029Z,45.10
2018-12-30T12:10:43.712Z,45.20
2018-12-30T12:13:40.078Z,45.20
2018-12-30T12:16:33.771Z,45.30
2018-12-30T12:19:27.303Z,45.40
2018-12-30T12:22:20.545Z,45.40
2018-12-30T12:25:20.054Z,45.50
2018-12-30T12:28:14.317Z,45.50
2018-12-30T12:31:07.431Z,45.50
2018-12-30T12:34:02.061Z,45.60
2018-12-30T12:36:56.038Z,45.60
2018-12-30T12:39:49.596Z,45.60
2018-12-30T12:42:43.046Z,45.70
2018-12-30T12:45:36.245Z,45.70
2018-12-30T12:48:29.878Z,45.70
2018-12-30T12:51:25.837Z,45.70
2018-12-30T12:54:21.443Z,45.80
2018-12-30T12:57:14.716Z,45.70
2018-12-30T13:00:08.250Z,45.80
2018-12-30T13:03:01.746Z,45.80
2018-12-30T13:05:54.705Z,45.80
2018-12-30T13:08:51.254Z,45.80
2018-12-30T13:11:43.044Z,45.70
2018-12-30T13:14:42.176Z,45.80
2018-12-30T13:17:34.805Z,45.80
2018-12-30T13:20:33.244Z,45.80
2018-12-30T13:23:30.656Z,45.80
2018-12-30T13:26:25.828Z,45.80
2018-12-30T13:29:18.890Z,45.80
2018-12-30T13:32:12.146Z,46.20
2018-12-30T13:35:09.243Z,45.80
2018-12-30T13:38:03.717Z,45.80
2018-12-30T13:41:00.080Z,45.80
2018-12-30T13:43:54.080Z,45.80
2018-12-30T13:46:49.469Z,45.80
2018-12-30T13:49:42.365Z,45.80
2018-12-30T13:52:36.483Z,45.80
2018-12-30T13:55:29.846Z,45.90
2018-12-30T13:58:22.815Z,45.90
2018-12-30T14:01:19.573Z,45.80
2018-12-30T14:04:13.078Z,45.90
2018-12-30T14:07:06.310Z,45.90
2018-12-30T14:10:03.083Z,45.80
2018-12-30T14:13:00.492Z,45.80
2018-12-30T14:15:54.162Z,45.80
2018-12-30T14:18:57.888Z,45.80
2018-12-30T14:21:51.165Z,45.80
2018-12-30T14:24:44.640Z,46.30
2018-12-30T14:27:38.586Z,45.90
2018-12-30T14:30:31.975Z,45.90
2018-12-30T14:33:25.641Z,45.90
2018-12-30T14:36:20.894Z,45.90
2018-12-30T14:39:17.100Z,46.00
2018-12-30T14:42:10.285Z,46.00
2018-12-30T14:45:03.583Z,45.90
2018-12-30T14:47:56.792Z,45.80
2018-12-30T14:50:52.854Z,45.90
2018-12-30T14:53:46.823Z,45.90
2018-12-30T14:56:39.811Z,45.90
2018-12-30T14:59:33.893Z,46.00
2018-12-30T15:02:27.377Z,45.90
2018-12-30T15:05:21.193Z,46.00
2018-12-30T15:08:20.413Z,45.90
2018-12-30T15:11:13.459Z,46.00
2018-12-30T15:14:06.988Z,46.00
2018-12-30T15:17:00.132Z,46.00
2018-12-30T15:19:54.104Z,46.00
2018-12-30T15:22:47.230Z,46.00
2018-12-30T15:25:40.930Z,46.00
2018-12-30T15:28:34.570Z,46.00
2018-12-30T15:31:31.378Z,46.10
2018-12-30T15:34:23.769Z,46.10
2018-12-30T15:37:20.994Z,46.10
2018-12-30T15:40:12.898Z,46.00
2018-12-30T15:43:06.593Z,46.10
2018-12-30T15:45:59.810Z,46.10
2018-12-30T15:48:53.190Z,46.10
2018-12-30T15:51:46.332Z,46.10
2018-12-30T15:54:40.268Z,46.10
2018-12-30T15:57:33.409Z,46.10
2018-12-30T16:00:27.550Z,46.10
2018-12-30T16:03:20.918Z,46.10
2018-12-30T16:06:14.430Z,46.20
2018-12-30T16:09:08.753Z,46.10
2018-12-30T16:12:03.623Z,46.10
2018-12-30T16:14:56.794Z,46.00
2018-12-30T16:17:51.166Z,46.10
2018-12-30T16:20:44.819Z,46.10
2018-12-30T16:23:40.564Z,46.10
2018-12-30T16:26:33.208Z,46.00
2018-12-30T16:29:26.772Z,46.10
2018-12-30T16:32:21.467Z,46.10
2018-12-30T16:35:14.979Z,46.10
2018-12-30T16:38:08.455Z,46.10
2018-12-30T16:41:02.691Z,46.10
2018-12-30T16:43:56.594Z,46.10
2018-12-30T16:46:50.355Z,46.10
2018-12-30T16:49:43.481Z,46.10
2018-12-30T16:52:39.738Z,46.20
2018-12-30T16:55:35.012Z,46.20
2018-12-30T16:58:27.082Z,46.10
2018-12-30T17:01:23.497Z,46.20
2018-12-30T17:04:17.525Z,46.10
2018-12-30T17:07:10.405Z,46.20
2018-12-30T17:10:03.619Z,46.20
2018-12-30T17:12:56.864Z,46.20
2018-12-30T17:15:49.982Z,46.20
2018-12-30T17:18:43.507Z,46.20
2018-12-30T17:21:37.031Z,46.30
2018-12-30T17:24:33.278Z,46.30
2018-12-30T17:27:29.348Z,46.70
2018-12-30T17:30:22.916Z,46.30
2018-12-30T17:33:18.451Z,46.40
2018-12-30T17:36:11.466Z,46.40
2018-12-30T17:39:06.031Z,46.40
2018-12-30T17:41:59.578Z,46.40
2018-12-30T17:44:52.979Z,46.40
2018-12-30T17:47:49.465Z,46.50
2018-12-30T17:50:42.496Z,46.50
2018-12-30T17:53:37.242Z,46.50
2018-12-30T17:56:30.813Z,46.50
2018-12-30T17:59:24.124Z,46.60
2018-12-30T18:02:17.469Z,46.60
2018-12-30T18:05:11.389Z,46.70
2018-12-30T18:08:04.881Z,46.60
2018-12-30T18:10:58.343Z,46.70
2018-12-30T18:13:56.063Z,46.70
2018-12-30T18:16:46.617Z,46.80
2018-12-30T18:19:40.236Z,47.00
2018-12-30T18:22:33.925Z,47.00
2018-12-30T18:25:27.640Z,47.00
2018-12-30T18:28:21.169Z,47.10
2018-12-30T18:31:14.681Z,47.20
2018-12-30T18:34:07.968Z,47.30
2018-12-30T18:37:02.958Z,47.40
2018-12-30T18:39:56.346Z,47.40
2018-12-30T18:42:50.476Z,47.50
2018-12-30T18:45:45.142Z,47.60
2018-12-30T18:48:38.640Z,47.60
2018-12-30T18:51:35.057Z,47.70
2018-12-30T18:54:28.739Z,47.70
2018-12-30T18:57:22.044Z,47.80
2018-12-30T19:00:15.746Z,47.80
2018-12-30T19:03:09.120Z,47.70
2018-12-30T19:06:04.127Z,47.80
2018-12-30T19:09:01.073Z,47.70
2018-12-30T19:11:55.751Z,47.80
2018-12-30T19:14:49.058Z,47.70
2018-12-30T19:17:42.534Z,47.70
2018-12-30T19:20:35.959Z,47.60
2018-12-30T19:23:29.542Z,47.60
2018-12-30T19:26:23.402Z,47.40
2018-12-30T19:29:16.908Z,47.50
2018-12-30T19:32:12.349Z,47.40
2018-12-30T19:35:05.676Z,47.40
2018-12-30T19:38:02.220Z,47.30
2018-12-30T19:40:55.266Z,47.30
2018-12-30T19:43:48.454Z,47.30
2018-12-30T19:46:41.808Z,47.30
2018-12-30T19:49:35.057Z,47.20
2018-12-30T19:52:30.848Z,47.20
2018-12-30T19:55:26.361Z,47.20
2018-12-30T19:58:24.324Z,47.20
2018-12-30T20:01:18.068Z,47.10
2018-12-30T20:04:11.654Z,47.00
2018-12-30T20:07:10.127Z,47.00
2018-12-30T20:10:03.556Z,47.00
2018-12-30T20:12:57.802Z,47.00
2018-12-30T20:15:51.146Z,47.10
2018-12-30T20:18:44.580Z,47.00
2018-12-30T20:21:38.131Z,47.00
2018-12-30T20:24:35.661Z,46.90
2018-12-30T20:27:29.214Z,47.00
2018-12-30T20:30:22.868Z,46.90
2018-12-30T20:33:15.882Z,46.90
2018-12-30T20:36:09.402Z,46.90
2018-12-30T20:39:02.379Z,46.90
2018-12-30T20:41:56.654Z,46.80
2018-12-30T20:44:49.795Z,46.80
2018-12-30T20:47:42.870Z,46.80
2018-12-30T20:50:36.281Z,46.80
2018-12-30T20:53:29.603Z,46.90
2018-12-30T20:56:22.628Z,46.90
2018-12-30T20:59:19.998Z,46.90
2018-12-30T21:02:15.829Z,46.90
2018-12-30T21:05:09.033Z,46.90
2018-12-30T21:08:04.498Z,46.90
2018-12-30T21:10:57.620Z,46.80
2018-12-30T21:13:51.020Z,46.90
2018-12-30T21:16:44.358Z,46.90
2018-12-30T21:19:40.516Z,46.90
2018-12-30T21:22:33.654Z,46.90
2018-12-30T21:25:26.820Z,46.80
2018-12-30T21:28:22.239Z,46.80
2018-12-30T21:31:18.258Z,46.80
2018-12-30T21:34:11.355Z,46.80
2018-12-30T21:37:05.124Z,46.80
2018-12-30T21:39:58.060Z,46.80
2018-12-30T21:42:52.437Z,46.80
2018-12-30T21:45:45.884Z,46.80
2018-12-30T21:48:38.988Z,46.80
2018-12-30T21:51:32.450Z,46.80
2018-12-30T21:54:25.697Z,46.80
2018-12-30T21:57:19.184Z,46.70
2018-12-30T22:00:15.511Z,46.80
2018-12-30T22:03:08.754Z,46.70
2018-12-30T22:06:02.391Z,46.70
2018-12-30T22:08:55.283Z,46.70
2018-12-30T22:11:49.961Z,46.70
2018-12-30T22:14:43.337Z,46.70
2018-12-30T22:17:36.650Z,46.70
2018-12-30T22:20:29.855Z,46.70
2018-12-30T22:23:22.796Z,46.70
2018-12-30T22:26:15.771Z,46.70
2018-12-30T22:29:09.399Z,46.80
2018-12-30T22:32:02.271Z,46.80
2018-12-30T22:34:55.097Z,46.80
2018-12-30T22:37:48.047Z,46.80
2018-12-30T22:40:41.263Z,46.90
2018-12-30T22:43:34.676Z,46.90
2018-12-30T22:46:27.968Z,46.90
2018-12-30T22:49:21.355Z,46.90
2018-12-30T22:52:15.873Z,46.90
2018-12-30T22:55:10.590Z,47.00
2018-12-30T22:58:09.451Z,47.00
2018-12-30T23:01:20.882Z,47.00
2018-12-30T23:04:14.122Z,47.00
2018-12-30T23:07:07.118Z,47.00
2018-12-30T23:10:00.352Z,47.10
2018-12-30T23:12:53.315Z,47.00
2018-12-30T23:15:46.580Z,47.00
2018-12-30T23:18:40.563Z,47.10
2018-12-30T23:21:33.841Z,47.10
2018-12-30T23:24:27.204Z,47.10
2018-12-30T23:27:20.548Z,47.10
2018-12-30T23:30:13.781Z,47.00
2018-12-30T23:33:07.274Z,47.00
2018-12-30T23:36:00.138Z,46.90
2018-12-30T23:38:53.457Z,47.00
2018-12-30T23:41:50.656Z,47.00
2018-12-30T23:44:43.937Z,47.00
2018-12-30T23:47:36.885Z,46.90
2018-12-30T23:50:29.916Z,46.90
2018-12-30T23:53:23.156Z,46.90
2018-12-30T23:56:17.552Z,46.90
2018-12-30T23:59:10.924Z,47.00
